createdAt,value
2022-08-27T00:01:22.753Z,22.91
2022-08-27T00:03:50.471Z,22.94
2022-08-27T00:06:19.825Z,22.94
2022-08-27T00:08:48.915Z,22.93
2022-08-27T00:11:17.745Z,22.92
2022-08-27T00:13:45.983Z,22.91
2022-08-27T00:16:15.694Z,22.90
2022-08-27T00:18:48.021Z,22.88
2022-08-27T00:21:17.844Z,22.88
2022-08-27T00:23:45.298Z,22.85
2022-08-27T00:26:14.041Z,22.84
2022-08-27T00:28:41.982Z,22.79
2022-08-27T00:31:11.356Z,22.80
2022-08-27T00:33:39.815Z,22.79
2022-08-27T00:36:08.025Z,22.81
2022-08-27T00:38:36.795Z,22.79
2022-08-27T00:41:04.833Z,22.78
2022-08-27T00:43:45.575Z,22.75
2022-08-27T00:46:21.627Z,22.76
2022-08-27T00:48:53.066Z,22.74
2022-08-27T00:51:22.393Z,22.75
2022-08-27T00:53:52.065Z,22.73
2022-08-27T00:56:23.423Z,22.71
2022-08-27T00:58:53.104Z,22.70
2022-08-27T01:01:27.816Z,22.60
2022-08-27T01:03:58.863Z,22.59
2022-08-27T01:06:31.583Z,22.48
2022-08-27T01:09:05.344Z,22.52
2022-08-27T01:11:32.577Z,22.45
2022-08-27T01:14:01.406Z,22.40
2022-08-27T01:16:36.126Z,22.36
2022-08-27T01:19:09.142Z,22.34
2022-08-27T01:21:49.897Z,22.29
2022-08-27T01:24:41.073Z,22.23
2022-08-27T01:27:13.610Z,22.19
2022-08-27T01:29:41.715Z,22.10
2022-08-27T01:32:25.863Z,22.07
2022-08-27T01:34:54.082Z,22.01
2022-08-27T01:37:24.088Z,21.96
2022-08-27T01:39:52.079Z,21.89
2022-08-27T01:42:44.083Z,21.85
2022-08-27T01:45:32.386Z,21.82
2022-08-27T01:48:00.813Z,21.87
2022-08-27T01:50:32.222Z,21.83
2022-08-27T01:53:03.763Z,21.85
2022-08-27T01:55:31.029Z,21.82
2022-08-27T01:57:58.465Z,21.80
2022-08-27T02:00:33.099Z,21.78
2022-08-27T02:03:01.035Z,21.77
2022-08-27T02:05:29.383Z,21.73
2022-08-27T02:07:56.892Z,21.73
2022-08-27T02:10:32.092Z,21.67
2022-08-27T02:13:00.542Z,21.68
2022-08-27T02:15:28.779Z,21.70
2022-08-27T02:17:56.504Z,21.71
2022-08-27T02:20:23.864Z,21.74
2022-08-27T02:22:55.539Z,21.73
2022-08-27T02:25:22.907Z,21.74
2022-08-27T02:27:51.076Z,21.73
2022-08-27T02:30:22.295Z,21.69
2022-08-27T02:32:49.873Z,21.66
2022-08-27T02:35:19.442Z,21.73
2022-08-27T02:37:47.620Z,21.69
2022-08-27T02:40:18.157Z,21.74
2022-08-27T02:42:46.942Z,21.71
2022-08-27T02:45:16.104Z,21.71
2022-08-27T02:47:43.758Z,21.69
2022-08-27T02:50:12.516Z,21.65
2022-08-27T02:52:39.844Z,21.61
2022-08-27T02:55:08.304Z,21.66
2022-08-27T02:57:36.570Z,21.67
2022-08-27T03:00:13.227Z,21.65
2022-08-27T03:02:40.676Z,21.60
2022-08-27T03:05:09.312Z,21.65
2022-08-27T03:07:37.616Z,21.63
2022-08-27T03:10:05.988Z,21.63
2022-08-27T03:12:36.349Z,21.60
2022-08-27T03:15:09.255Z,21.60
2022-08-27T03:17:55.744Z,21.54
2022-08-27T03:20:24.184Z,21.51
2022-08-27T03:22:51.662Z,21.48
2022-08-27T03:25:19.810Z,21.53
2022-08-27T03:27:47.522Z,21.53
2022-08-27T03:30:19.208Z,21.52
2022-08-27T03:32:46.896Z,21.54
2022-08-27T03:35:14.387Z,21.50
2022-08-27T03:37:42.029Z,21.45
2022-08-27T03:40:10.408Z,21.38
2022-08-27T03:42:39.220Z,21.44
2022-08-27T03:45:08.026Z,21.46
2022-08-27T03:47:36.152Z,21.43
2022-08-27T03:50:06.345Z,21.46
2022-08-27T03:52:34.437Z,21.41
2022-08-27T03:55:02.083Z,21.43
2022-08-27T03:57:29.318Z,21.44
2022-08-27T03:59:57.316Z,21.46
2022-08-27T04:02:24.622Z,21.37
2022-08-27T04:04:51.996Z,21.38
2022-08-27T04:07:19.442Z,21.31
2022-08-27T04:09:46.704Z,21.29
2022-08-27T04:12:13.832Z,21.32
2022-08-27T04:14:41.069Z,21.32
2022-08-27T04:17:08.318Z,21.32
2022-08-27T04:19:35.553Z,21.36
2022-08-27T04:22:05.783Z,21.38
2022-08-27T04:24:34.836Z,21.36
2022-08-27T04:27:03.031Z,21.33
2022-08-27T04:29:30.386Z,21.35
2022-08-27T04:31:58.376Z,21.37
2022-08-27T04:34:25.576Z,21.39
2022-08-27T04:36:56.881Z,21.41
2022-08-27T04:39:24.983Z,21.39
2022-08-27T04:41:55.837Z,21.42
2022-08-27T04:44:24.034Z,21.43
2022-08-27T04:46:56.721Z,21.46
2022-08-27T04:49:24.593Z,21.48
2022-08-27T04:51:52.358Z,21.51
2022-08-27T04:54:26.003Z,21.49
2022-08-27T04:57:01.786Z,21.51
2022-08-27T04:59:30.270Z,21.63
2022-08-27T05:01:57.684Z,21.65
2022-08-27T05:04:25.071Z,21.65
2022-08-27T05:06:54.493Z,21.65
2022-08-27T05:09:24.539Z,21.65
2022-08-27T05:11:55.694Z,21.69
2022-08-27T05:14:24.427Z,21.64
2022-08-27T05:16:52.004Z,21.76
2022-08-27T05:19:19.221Z,21.79
2022-08-27T05:21:49.687Z,21.80
2022-08-27T05:24:18.104Z,21.86
2022-08-27T05:26:46.423Z,21.85
2022-08-27T05:29:14.546Z,21.92
2022-08-27T05:31:42.861Z,21.96
2022-08-27T05:34:16.439Z,21.99
2022-08-27T05:36:47.957Z,22.02
2022-08-27T05:39:17.206Z,22.09
2022-08-27T05:41:44.607Z,22.13
2022-08-27T05:44:40.246Z,22.23
2022-08-27T05:46:59.616Z,22.26
2022-08-27T05:49:26.918Z,22.39
2022-08-27T05:51:54.254Z,22.43
2022-08-27T05:54:21.547Z,22.46
2022-08-27T05:56:50.318Z,22.62
2022-08-27T05:59:36.708Z,22.77
2022-08-27T06:02:04.515Z,22.91
2022-08-27T06:04:31.829Z,23.09
2022-08-27T06:06:59.046Z,23.18
2022-08-27T06:09:29.609Z,23.39
2022-08-27T06:12:00.002Z,23.58
2022-08-27T06:14:28.388Z,23.70
2022-08-27T06:16:56.477Z,23.76
2022-08-27T06:19:24.447Z,23.84
2022-08-27T06:22:00.800Z,23.97
2022-08-27T06:24:37.081Z,24.16
2022-08-27T06:27:04.467Z,24.30
2022-08-27T06:29:31.681Z,24.49
2022-08-27T06:31:58.875Z,24.57
2022-08-27T06:34:26.272Z,24.67
2022-08-27T06:36:54.744Z,24.81
2022-08-27T06:39:21.969Z,24.73
2022-08-27T06:41:50.511Z,24.94
2022-08-27T06:44:22.423Z,25.01
2022-08-27T06:46:49.709Z,25.13
2022-08-27T06:49:16.990Z,25.22
2022-08-27T06:51:47.305Z,25.31
2022-08-27T06:54:16.725Z,25.39
2022-08-27T06:56:44.897Z,25.39
2022-08-27T06:59:15.801Z,25.50
2022-08-27T07:01:46.276Z,25.52
2022-08-27T07:04:20.179Z,25.54
2022-08-27T07:06:47.504Z,25.60
2022-08-27T07:09:15.086Z,25.62
2022-08-27T07:11:42.851Z,25.46
2022-08-27T07:14:10.265Z,25.59
2022-08-27T07:16:39.655Z,25.68
2022-08-27T07:19:08.319Z,25.86
2022-08-27T07:21:36.355Z,26.13
2022-08-27T07:24:05.862Z,26.30
2022-08-27T07:26:35.145Z,26.40
2022-08-27T07:29:04.160Z,26.51
2022-08-27T07:31:31.538Z,26.73
2022-08-27T07:33:58.952Z,26.97
2022-08-27T07:36:40.560Z,27.19
2022-08-27T07:39:14.241Z,27.50
2022-08-27T07:42:00.420Z,27.59
2022-08-27T07:44:34.547Z,27.91
2022-08-27T07:47:03.035Z,28.11
2022-08-27T07:49:31.933Z,28.37
2022-08-27T07:51:59.424Z,28.58
2022-08-27T07:54:27.199Z,28.80
2022-08-27T07:56:56.187Z,28.94
2022-08-27T07:59:27.698Z,29.12
2022-08-27T08:01:56.944Z,29.29
2022-08-27T08:04:25.384Z,29.41
2022-08-27T08:06:52.923Z,29.47
2022-08-27T08:09:22.509Z,29.54
2022-08-27T08:11:51.374Z,29.57
2022-08-27T08:14:19.772Z,29.73
2022-08-27T08:16:47.124Z,29.92
2022-08-27T08:19:14.696Z,30.09
2022-08-27T08:21:43.002Z,30.28
2022-08-27T08:24:10.425Z,30.42
2022-08-27T08:26:37.848Z,30.52
2022-08-27T08:29:05.457Z,30.54
2022-08-27T08:31:33.325Z,30.69
2022-08-27T08:34:01.197Z,30.86
2022-08-27T08:36:28.662Z,30.95
2022-08-27T08:38:56.026Z,31.09
2022-08-27T08:41:23.481Z,31.16
2022-08-27T08:43:52.077Z,31.21
2022-08-27T08:46:26.134Z,31.25
2022-08-27T08:48:57.715Z,31.40
2022-08-27T08:51:31.744Z,31.41
2022-08-27T08:54:04.627Z,31.38
2022-08-27T08:56:59.905Z,31.31
2022-08-27T08:59:33.960Z,31.24
2022-08-27T09:02:01.697Z,31.34
2022-08-27T09:04:30.363Z,31.45
2022-08-27T09:07:29.679Z,31.46
2022-08-27T09:10:34.908Z,31.67
2022-08-27T09:13:05.838Z,31.91
2022-08-27T09:15:36.895Z,31.94
2022-08-27T09:18:14.120Z,31.73
2022-08-27T09:20:46.617Z,31.72
2022-08-27T09:23:51.912Z,31.78
2022-08-27T09:26:26.858Z,31.83
2022-08-27T09:29:17.664Z,32.01
2022-08-27T09:31:58.517Z,32.12
2022-08-27T09:34:34.902Z,32.10
2022-08-27T09:37:10.716Z,32.02
2022-08-27T09:39:49.067Z,32.07
2022-08-27T09:42:37.944Z,31.98
2022-08-27T09:45:11.880Z,32.05
2022-08-27T09:47:51.584Z,32.13
2022-08-27T09:50:22.436Z,32.26
2022-08-27T09:52:56.743Z,32.35
2022-08-27T09:55:44.033Z,32.50
2022-08-27T09:58:43.396Z,32.66
2022-08-27T10:01:25.991Z,32.85
2022-08-27T10:04:12.281Z,32.98
2022-08-27T10:06:46.822Z,33.10
2022-08-27T10:09:20.362Z,33.07
2022-08-27T10:12:03.876Z,33.04
2022-08-27T10:14:53.524Z,33.12
2022-08-27T10:18:02.864Z,33.04
2022-08-27T10:21:11.879Z,33.07
2022-08-27T10:24:23.223Z,32.81
2022-08-27T10:27:22.744Z,32.37
2022-08-27T10:30:01.288Z,32.46
2022-08-27T10:33:04.211Z,32.22
2022-08-27T10:35:54.771Z,32.09
2022-08-27T10:38:50.560Z,32.13
2022-08-27T10:41:28.896Z,31.92
2022-08-27T10:44:02.387Z,32.02
2022-08-27T10:46:50.543Z,32.24
2022-08-27T10:49:42.680Z,32.53
2022-08-27T10:52:31.664Z,32.75
2022-08-27T10:55:22.130Z,32.87
2022-08-27T10:58:10.689Z,33.10
2022-08-27T11:00:55.679Z,33.24
2022-08-27T11:03:36.347Z,33.44
2022-08-27T11:06:25.502Z,33.43
2022-08-27T11:08:59.582Z,33.47
2022-08-27T11:14:47.558Z,33.61
2022-08-27T11:17:32.299Z,33.52
2022-08-27T11:20:04.865Z,33.60
2022-08-27T11:22:49.382Z,33.73
2022-08-27T11:25:52.132Z,33.71
2022-08-27T11:28:29.684Z,33.70
2022-08-27T11:31:20.203Z,33.67
2022-08-27T11:34:08.304Z,33.66
2022-08-27T11:36:57.316Z,33.68
2022-08-27T11:39:52.138Z,33.75
2022-08-27T11:42:57.631Z,33.66
2022-08-27T11:45:38.916Z,33.50
2022-08-27T11:48:39.242Z,33.48
2022-08-27T11:51:10.943Z,33.60
2022-08-27T11:53:54.554Z,33.66
2022-08-27T11:56:44.089Z,33.67
2022-08-27T11:59:12.644Z,33.73
2022-08-27T12:01:40.611Z,33.68
2022-08-27T12:04:31.631Z,33.49
2022-08-27T12:07:25.347Z,33.32
2022-08-27T12:10:19.947Z,33.16
2022-08-27T12:12:47.232Z,33.19
2022-08-27T12:15:27.559Z,33.20
2022-08-27T12:18:20.289Z,32.96
2022-08-27T12:21:03.476Z,32.62
2022-08-27T12:23:45.560Z,32.44
2022-08-27T12:26:41.863Z,32.56
2022-08-27T12:29:31.533Z,32.73
2022-08-27T12:32:11.506Z,32.88
2022-08-27T12:34:49.971Z,32.92
2022-08-27T12:37:26.608Z,33.06
2022-08-27T12:39:57.870Z,33.08
2022-08-27T12:42:25.227Z,33.13
2022-08-27T12:44:57.542Z,33.12
2022-08-27T12:47:25.181Z,33.23
2022-08-27T12:49:58.853Z,33.24
2022-08-27T12:52:31.735Z,33.19
2022-08-27T12:54:59.429Z,33.09
2022-08-27T12:57:48.105Z,33.06
2022-08-27T13:00:24.191Z,33.06
2022-08-27T13:03:21.681Z,33.03
2022-08-27T13:05:51.233Z,33.06
2022-08-27T13:08:23.009Z,33.08
2022-08-27T13:10:51.241Z,32.89
2022-08-27T13:13:24.584Z,32.95
2022-08-27T13:15:58.930Z,32.88
2022-08-27T13:18:29.467Z,32.86
2022-08-27T13:21:16.628Z,32.83
2022-08-27T13:23:59.570Z,32.83
2022-08-27T13:26:30.543Z,32.82
2022-08-27T13:29:03.250Z,32.77
2022-08-27T13:31:32.427Z,32.76
2022-08-27T13:34:01.423Z,32.60
2022-08-27T13:36:49.330Z,32.59
2022-08-27T13:39:17.035Z,32.54
2022-08-27T13:41:47.663Z,32.50
2022-08-27T13:44:18.910Z,32.49
2022-08-27T13:47:01.620Z,32.32
2022-08-27T13:49:32.101Z,32.35
2022-08-27T13:52:07.316Z,32.31
2022-08-27T13:54:35.745Z,32.29
2022-08-27T13:57:10.429Z,32.19
2022-08-27T13:59:43.248Z,32.17
2022-08-27T14:02:10.777Z,32.09
2022-08-27T14:04:40.631Z,32.05
2022-08-27T14:07:14.500Z,31.99
2022-08-27T14:09:54.367Z,31.94
2022-08-27T14:12:38.417Z,31.89
2022-08-27T14:15:31.991Z,31.85
2022-08-27T14:17:59.865Z,31.79
2022-08-27T14:20:28.101Z,31.77
2022-08-27T14:22:56.264Z,31.72
2022-08-27T14:25:24.041Z,31.68
2022-08-27T14:27:54.367Z,31.67
2022-08-27T14:30:29.115Z,31.63
2022-08-27T14:33:00.748Z,31.61
2022-08-27T14:35:30.277Z,31.59
2022-08-27T14:37:59.304Z,31.56
2022-08-27T14:40:26.612Z,31.48
2022-08-27T14:42:53.945Z,31.45
2022-08-27T14:45:23.625Z,31.39
2022-08-27T14:47:51.749Z,31.29
2022-08-27T14:50:19.153Z,31.09
2022-08-27T14:52:46.482Z,31.19
2022-08-27T14:55:14.903Z,31.09
2022-08-27T14:57:42.263Z,31.10
2022-08-27T15:00:10.984Z,31.07
2022-08-27T15:02:44.914Z,31.06
2022-08-27T15:05:17.596Z,31.06
2022-08-27T15:07:46.197Z,31.01
2022-08-27T15:10:15.019Z,30.99
2022-08-27T15:12:42.915Z,30.84
2022-08-27T15:15:11.584Z,30.96
2022-08-27T15:17:39.028Z,30.89
2022-08-27T15:20:11.806Z,30.91
2022-08-27T15:22:47.344Z,30.87
2022-08-27T15:25:15.985Z,30.75
2022-08-27T15:27:43.584Z,30.78
2022-08-27T15:30:13.824Z,30.75
2022-08-27T15:32:44.350Z,30.71
2022-08-27T15:35:15.464Z,30.71
2022-08-27T15:37:45.063Z,30.65
2022-08-27T15:40:15.037Z,30.65
2022-08-27T15:42:42.576Z,30.63
2022-08-27T15:45:12.135Z,30.61
2022-08-27T15:47:39.904Z,30.59
2022-08-27T15:50:08.314Z,30.50
2022-08-27T15:52:40.669Z,30.56
2022-08-27T15:55:33.739Z,30.53
2022-08-27T15:58:01.592Z,30.50
2022-08-27T16:00:30.576Z,30.45
2022-08-27T16:02:58.163Z,30.41
2022-08-27T16:05:28.789Z,30.38
2022-08-27T16:07:56.415Z,30.30
2022-08-27T16:10:23.715Z,30.28
2022-08-27T16:12:51.458Z,30.16
2022-08-27T16:15:18.943Z,30.16
2022-08-27T16:17:46.456Z,30.12
2022-08-27T16:20:16.098Z,30.02
2022-08-27T16:22:44.644Z,30.03
2022-08-27T16:25:17.783Z,29.96
2022-08-27T16:27:46.737Z,29.93
2022-08-27T16:30:14.777Z,29.87
2022-08-27T16:32:44.937Z,29.83
2022-08-27T16:35:12.257Z,29.78
2022-08-27T16:37:39.689Z,29.75
2022-08-27T16:40:07.667Z,29.70
2022-08-27T16:42:43.416Z,29.65
2022-08-27T16:45:14.220Z,29.57
2022-08-27T16:48:01.694Z,29.55
2022-08-27T16:50:35.976Z,29.48
2022-08-27T16:53:06.296Z,29.44
2022-08-27T16:55:34.899Z,29.37
2022-08-27T16:58:02.418Z,29.31
2022-08-27T17:00:30.379Z,29.27
2022-08-27T17:02:58.115Z,29.16
2022-08-27T17:05:41.079Z,29.16
2022-08-27T17:08:11.603Z,29.03
2022-08-27T17:10:45.936Z,28.98
2022-08-27T17:13:15.936Z,28.95
2022-08-27T17:15:43.662Z,28.87
2022-08-27T17:18:11.646Z,28.82
2022-08-27T17:20:38.926Z,28.76
2022-08-27T17:23:07.856Z,28.69
2022-08-27T17:25:35.017Z,28.62
2022-08-27T17:28:02.465Z,28.57
2022-08-27T17:30:29.813Z,28.43
2022-08-27T17:32:57.330Z,28.44
2022-08-27T17:35:24.616Z,28.37
2022-08-27T17:37:52.291Z,28.27
2022-08-27T17:40:19.618Z,28.19
2022-08-27T17:42:46.988Z,28.14
2022-08-27T17:45:14.378Z,28.07
2022-08-27T17:47:41.897Z,27.99
2022-08-27T17:50:09.656Z,27.95
2022-08-27T17:52:40.287Z,27.87
2022-08-27T17:55:08.288Z,27.78
2022-08-27T17:57:40.848Z,27.67
2022-08-27T18:00:12.968Z,27.62
2022-08-27T18:02:47.666Z,27.51
2022-08-27T18:05:16.379Z,27.36
2022-08-27T18:07:44.420Z,27.21
2022-08-27T18:10:14.830Z,27.11
2022-08-27T18:12:43.271Z,26.96
2022-08-27T18:15:27.226Z,26.88
2022-08-27T18:17:55.452Z,26.82
2022-08-27T18:20:25.856Z,26.77
2022-08-27T18:22:53.342Z,26.65
2022-08-27T18:25:24.743Z,26.65
2022-08-27T18:27:56.540Z,26.62
2022-08-27T18:30:24.749Z,26.60
2022-08-27T18:32:52.007Z,26.58
2022-08-27T18:35:25.678Z,26.55
2022-08-27T18:37:53.459Z,26.44
2022-08-27T18:40:23.662Z,26.47
2022-08-27T18:42:50.962Z,26.39
2022-08-27T18:45:23.294Z,26.39
2022-08-27T18:47:52.056Z,26.34
2022-08-27T18:50:20.994Z,26.37
2022-08-27T18:52:50.575Z,26.34
2022-08-27T18:55:22.217Z,26.35
2022-08-27T18:57:49.799Z,26.33
2022-08-27T19:00:19.421Z,26.30
2022-08-27T19:02:52.315Z,26.28
2022-08-27T19:05:27.776Z,26.22
2022-08-27T19:07:57.500Z,26.19
2022-08-27T19:10:25.525Z,26.16
2022-08-27T19:12:53.245Z,26.08
2022-08-27T19:15:21.111Z,26.05
2022-08-27T19:17:54.259Z,25.96
2022-08-27T19:20:22.778Z,25.92
2022-08-27T19:22:50.835Z,25.89
2022-08-27T19:25:18.429Z,25.87
2022-08-27T19:27:47.096Z,25.86
2022-08-27T19:30:16.377Z,25.84
2022-08-27T19:32:44.378Z,25.78
2022-08-27T19:35:11.818Z,25.68
2022-08-27T19:37:52.620Z,25.63
2022-08-27T19:40:22.376Z,25.58
2022-08-27T19:42:50.377Z,25.55
2022-08-27T19:45:23.323Z,25.56
2022-08-27T19:47:52.897Z,25.51
2022-08-27T19:50:22.456Z,25.42
2022-08-27T19:52:50.698Z,25.31
2022-08-27T19:55:18.021Z,25.23
2022-08-27T19:57:45.708Z,25.10
2022-08-27T20:00:15.700Z,25.00
2022-08-27T20:02:43.003Z,24.89
2022-08-27T20:05:18.910Z,24.84
2022-08-27T20:07:52.621Z,24.77
2022-08-27T20:10:23.137Z,24.71
2022-08-27T20:12:53.602Z,24.58
2022-08-27T20:15:23.457Z,24.55
2022-08-27T20:17:52.648Z,24.54
2022-08-27T20:20:23.287Z,24.55
2022-08-27T20:22:51.290Z,24.50
2022-08-27T20:25:19.457Z,24.37
2022-08-27T20:27:47.904Z,24.33
2022-08-27T20:30:16.136Z,24.26
2022-08-27T20:32:43.498Z,24.26
2022-08-27T20:35:11.298Z,24.20
2022-08-27T20:37:42.269Z,24.22
2022-08-27T20:40:13.749Z,24.22
2022-08-27T20:42:41.099Z,24.26
2022-08-27T20:45:12.169Z,24.25
2022-08-27T20:47:41.330Z,24.28
2022-08-27T20:50:09.815Z,24.27
2022-08-27T20:52:40.385Z,24.27
2022-08-27T20:55:09.967Z,24.24
2022-08-27T20:57:37.350Z,24.25
2022-08-27T21:00:21.817Z,24.25
2022-08-27T21:02:49.456Z,24.24
2022-08-27T21:05:19.376Z,24.22
2022-08-27T21:07:48.957Z,24.17
2022-08-27T21:10:16.950Z,24.19
2022-08-27T21:12:45.179Z,24.20
2022-08-27T21:15:13.435Z,24.22
2022-08-27T21:17:40.707Z,24.22
2022-08-27T21:20:11.173Z,24.22
2022-08-27T21:22:39.254Z,24.18
2022-08-27T21:25:07.868Z,24.20
2022-08-27T21:27:34.989Z,24.09
2022-08-27T21:30:02.258Z,24.09
2022-08-27T21:32:29.661Z,24.10
2022-08-27T21:34:56.963Z,24.11
2022-08-27T21:37:24.169Z,24.04
2022-08-27T21:39:51.467Z,24.11
2022-08-27T21:42:18.737Z,24.11
2022-08-27T21:44:46.129Z,24.10
2022-08-27T21:47:13.511Z,24.06
2022-08-27T21:49:41.178Z,24.03
2022-08-27T21:52:08.481Z,24.01
2022-08-27T21:54:38.934Z,23.99
2022-08-27T21:57:07.799Z,23.97
2022-08-27T21:59:41.527Z,23.89
2022-08-27T22:02:28.937Z,23.78
2022-08-27T22:04:56.537Z,23.75
2022-08-27T22:07:24.527Z,23.68
2022-08-27T22:09:51.771Z,23.62
2022-08-27T22:12:19.053Z,23.52
2022-08-27T22:14:46.187Z,23.38
2022-08-27T22:17:15.982Z,23.27
2022-08-27T22:19:43.373Z,23.20
2022-08-27T22:22:10.827Z,23.23
2022-08-27T22:24:38.037Z,23.26
2022-08-27T22:27:06.396Z,23.26
2022-08-27T22:29:33.641Z,23.28
2022-08-27T22:32:00.794Z,23.30
2022-08-27T22:34:27.914Z,23.31
2022-08-27T22:36:55.072Z,23.30
2022-08-27T22:39:22.308Z,23.13
2022-08-27T22:41:51.447Z,23.15
2022-08-27T22:44:18.674Z,23.05
2022-08-27T22:46:45.898Z,23.01
2022-08-27T22:49:13.165Z,22.88
2022-08-27T22:51:40.314Z,22.91
2022-08-27T22:54:08.219Z,22.97
2022-08-27T22:56:35.895Z,22.97
2022-08-27T22:59:03.884Z,22.90
2022-08-27T23:01:36.453Z,22.78
2022-08-27T23:04:06.531Z,22.74
2022-08-27T23:06:34.042Z,22.61
2022-08-27T23:09:02.062Z,22.57
2022-08-27T23:14:00.364Z,22.43
2022-08-27T23:16:28.546Z,22.47
2022-08-27T23:18:55.759Z,22.42
2022-08-27T23:21:23.262Z,22.41
2022-08-27T23:23:50.375Z,22.39
2022-08-27T23:26:36.090Z,22.39
2022-08-27T23:29:03.200Z,22.34
2022-08-27T23:31:30.393Z,22.31
2022-08-27T23:33:57.661Z,22.29
2022-08-27T23:36:25.161Z,22.26
2022-08-27T23:38:52.271Z,22.26
2022-08-27T23:41:19.393Z,22.27
2022-08-27T23:43:46.749Z,22.22
2022-08-27T23:46:14.075Z,22.26
2022-08-27T23:48:41.287Z,22.16
2022-08-27T23:51:09.167Z,22.14
2022-08-27T23:53:38.302Z,22.10
2022-08-27T23:56:06.333Z,22.11
2022-08-27T23:58:33.423Z,22.13
